Time;durP1;ratioP1;P1;durP2;ratioP2;P2;SDS_P1;SDS_P2;PMS_P1;PMS_P2;Temp;Humidity;BMP_temperature;BMP_pressure;BME280_temperature;BME280_humidity;BME280_pressure;Samples;Min_cycle;Max_cycle;Signal;HPM_P1;HPM_P2
2022/01/09 00:00:16;;;;;;;97.80;42.63;;;;;;;;;;6126315;23;20005;-66
2022/01/09 00:02:42;;;;;;;94.82;42.78;;;;;;;;;;6126844;23;20010;-66
2022/01/09 00:05:08;;;;;;;91.63;40.20;;;;;;;;;;6126743;23;20005;-67
2022/01/09 00:07:33;;;;;;;83.38;40.08;;;;;;;;;;6126701;23;20053;-67
2022/01/09 00:09:58;;;;;;;89.78;40.47;;;;;;;;;;6126553;23;20005;-66
2022/01/09 00:12:24;;;;;;;88.22;40.13;;;;;;;;;;6126464;23;20489;-64
2022/01/09 00:14:52;;;;;;;111.75;49.17;;;;;;;;;;6126248;23;20002;-64
2022/01/09 00:17:18;;;;;;;102.78;45.63;;;;;;;;;;6126426;23;20090;-65
2022/01/09 00:19:43;;;;;;;125.88;50.17;;;;;;;;;;6126429;23;20006;-64
2022/01/09 00:22:10;;;;;;;142.10;55.28;;;;;;;;;;6126140;23;20061;-66
2022/01/09 00:24:36;;;;;;;120.53;50.67;;;;;;;;;;6126486;23;20434;-68
2022/01/09 00:27:01;;;;;;;86.93;37.55;;;;;;;;;;6126265;23;20009;-68
2022/01/09 00:29:26;;;;;;;67.10;32.72;;;;;;;;;;6100521;23;20029;-68
2022/01/09 00:31:52;;;;;;;76.38;35.33;;;;;;;;;;6125874;23;20426;-67
2022/01/09 00:34:18;;;;;;;66.82;33.05;;;;;;;;;;6126336;23;20033;-66
2022/01/09 00:36:43;;;;;;;71.07;34.90;;;;;;;;;;6126361;23;20441;-67
2022/01/09 00:39:08;;;;;;;60.35;30.48;;;;;;;;;;6100388;23;20325;-66
2022/01/09 00:41:34;;;;;;;60.47;29.65;;;;;;;;;;6126204;23;20018;-67
2022/01/09 00:43:59;;;;;;;72.13;33.08;;;;;;;;;;6100454;23;20068;-67
2022/01/09 00:46:25;;;;;;;73.38;34.72;;;;;;;;;;6126182;23;20005;-67
2022/01/09 00:48:50;;;;;;;83.45;35.38;;;;;;;;;;6125977;23;20028;-67
2022/01/09 00:51:16;;;;;;;64.68;29.92;;;;;;;;;;6126143;23;20002;-67
2022/01/09 00:53:41;;;;;;;77.30;31.65;;;;;;;;;;6126197;23;20010;-67
2022/01/09 00:56:07;;;;;;;77.25;32.88;;;;;;;;;;6100234;23;20010;-67
2022/01/09 00:58:33;;;;;;;80.57;34.38;;;;;;;;;;6126016;23;20049;-67
2022/01/09 01:01:01;;;;;;;55.35;27.35;;;;;;;;;;6125783;23;20065;-67
2022/01/09 01:03:26;;;;;;;53.72;25.70;;;;;;;;;;6126156;23;20001;-65
2022/01/09 01:05:52;;;;;;;64.70;28.90;;;;;;;;;;6126053;23;20057;-65
2022/01/09 01:08:17;;;;;;;57.22;26.05;;;;;;;;;;6125746;23;20004;-66
2022/01/09 01:10:43;;;;;;;108.93;44.78;;;;;;;;;;6125909;23;20005;-65
2022/01/09 01:13:09;;;;;;;126.78;50.83;;;;;;;;;;6099989;23;20057;-66
2022/01/09 01:15:35;;;;;;;121.95;47.60;;;;;;;;;;6126046;23;20006;-65
2022/01/09 01:18:00;;;;;;;123.57;47.13;;;;;;;;;;6126065;23;20052;-65
2022/01/09 01:20:27;;;;;;;102.97;38.65;;;;;;;;;;6125791;23;20096;-66
2022/01/09 01:22:53;;;;;;;137.38;47.78;;;;;;;;;;6126012;23;20006;-66
2022/01/09 01:25:19;;;;;;;107.10;41.03;;;;;;;;;;6125594;23;20013;-66
2022/01/09 01:27:44;;;;;;;109.80;46.28;;;;;;;;;;6125926;23;20006;-66
2022/01/09 01:30:10;;;;;;;96.30;40.63;;;;;;;;;;6125928;23;20006;-67
2022/01/09 01:32:36;;;;;;;64.32;31.73;;;;;;;;;;6125796;23;20005;-67
2022/01/09 01:35:02;;;;;;;60.55;29.58;;;;;;;;;;6125763;23;20485;-66
2022/01/09 01:37:27;;;;;;;65.65;31.10;;;;;;;;;;6125773;23;20002;-66
2022/01/09 01:39:52;;;;;;;59.30;27.80;;;;;;;;;;6125537;23;20009;-67
2022/01/09 01:42:18;;;;;;;54.80;26.73;;;;;;;;;;6125720;23;20447;-66
2022/01/09 01:44:47;;;;;;;56.63;27.60;;;;;;;;;;6125928;23;20013;-66
2022/01/09 01:47:20;;;;;;;54.60;25.58;;;;;;;;;;6125678;23;20068;-66
2022/01/09 01:49:46;;;;;;;70.35;31.23;;;;;;;;;;6125695;23;20010;-66
2022/01/09 01:52:13;;;;;;;73.55;33.40;;;;;;;;;;6125900;23;19998;-66
2022/01/09 01:54:40;;;;;;;72.93;33.85;;;;;;;;;;6125720;23;20006;-67
2022/01/09 01:57:05;;;;;;;67.32;32.33;;;;;;;;;;6099331;23;20096;-66
2022/01/09 01:59:31;;;;;;;53.30;26.40;;;;;;;;;;6125474;23;20037;-67
2022/01/09 02:01:58;;;;;;;52.15;26.15;;;;;;;;;;6099069;23;20001;-67
2022/01/09 02:04:24;;;;;;;61.20;29.42;;;;;;;;;;6125612;23;20056;-67
2022/01/09 02:06:49;;;;;;;66.32;31.38;;;;;;;;;;6125312;23;20026;-67
2022/01/09 02:09:15;;;;;;;74.07;33.13;;;;;;;;;;6125352;23;20014;-67
2022/01/09 02:11:41;;;;;;;69.75;31.48;;;;;;;;;;6099605;23;20002;-68
2022/01/09 02:14:06;;;;;;;84.55;36.53;;;;;;;;;;6125398;23;20010;-68
2022/01/09 02:16:32;;;;;;;81.75;38.22;;;;;;;;;;6099439;23;20009;-67
2022/01/09 02:18:58;;;;;;;75.57;35.53;;;;;;;;;;6099283;23;20013;-67
2022/01/09 02:21:26;;;;;;;75.22;34.38;;;;;;;;;;6105962;23;20010;-67
2022/01/09 02:23:52;;;;;;;78.00;37.35;;;;;;;;;;6125321;23;20017;-67
2022/01/09 02:26:21;;;;;;;83.20;39.33;;;;;;;;;;6125266;23;20002;-67
2022/01/09 02:28:47;;;;;;;92.57;39.77;;;;;;;;;;6125351;23;20021;-67
2022/01/09 02:31:13;;;;;;;85.40;37.90;;;;;;;;;;6125177;23;20081;-66
2022/01/09 02:33:39;;;;;;;78.45;36.65;;;;;;;;;;6125602;23;20042;-66
2022/01/09 02:36:04;;;;;;;72.78;32.35;;;;;;;;;;6124051;23;20411;-66
2022/01/09 02:38:31;;;;;;;50.78;25.13;;;;;;;;;;6125288;23;20457;-67
2022/01/09 02:40:56;;;;;;;47.70;25.58;;;;;;;;;;6123711;23;20421;-66
2022/01/09 02:43:22;;;;;;;51.78;24.58;;;;;;;;;;6125167;23;20006;-66
2022/01/09 02:45:54;;;;;;;52.80;25.02;;;;;;;;;;6123700;23;20081;-66
2022/01/09 02:48:20;;;;;;;79.72;35.95;;;;;;;;;;6125204;23;20053;-66
2022/01/09 02:50:59;;;;;;;75.40;35.05;;;;;;;;;;6125065;23;20006;-66
2022/01/09 02:53:29;;;;;;;74.47;35.78;;;;;;;;;;6123598;23;20009;-65
2022/01/09 02:55:54;;;;;;;62.33;29.20;;;;;;;;;;6123695;23;20009;-65
2022/01/09 02:58:20;;;;;;;59.95;29.27;;;;;;;;;;6125000;23;20010;-66
2022/01/09 03:00:45;;;;;;;61.92;28.48;;;;;;;;;;6124850;23;20006;-65
2022/01/09 03:03:11;;;;;;;63.22;29.92;;;;;;;;;;6125199;23;20002;-64
2022/01/09 03:05:37;;;;;;;66.65;29.23;;;;;;;;;;6125050;23;19998;-65
2022/01/09 03:08:02;;;;;;;68.57;31.55;;;;;;;;;;6125411;23;20072;-66
2022/01/09 03:10:28;;;;;;;66.28;30.75;;;;;;;;;;6125213;23;20005;-65
2022/01/09 03:12:56;;;;;;;69.95;31.73;;;;;;;;;;6125290;23;20010;-70
2022/01/09 03:15:21;;;;;;;65.00;30.48;;;;;;;;;;6125737;23;20002;-65
2022/01/09 03:17:47;;;;;;;69.03;31.67;;;;;;;;;;6124993;23;20464;-65
2022/01/09 03:20:17;;;;;;;63.58;30.23;;;;;;;;;;6123604;23;20002;-65
2022/01/09 03:22:43;;;;;;;57.58;29.35;;;;;;;;;;6125028;23;20010;-65
2022/01/09 03:25:09;;;;;;;63.42;30.73;;;;;;;;;;6099245;23;20096;-67
2022/01/09 03:27:36;;;;;;;55.75;26.98;;;;;;;;;;6125051;23;20002;-67
2022/01/09 03:30:01;;;;;;;51.10;25.10;;;;;;;;;;6124940;23;20002;-67
2022/01/09 03:32:27;;;;;;;47.42;23.50;;;;;;;;;;6124871;23;20020;-67
2022/01/09 03:34:52;;;;;;;44.22;23.60;;;;;;;;;;6124883;23;20133;-67
2022/01/09 03:37:18;;;;;;;47.90;23.60;;;;;;;;;;6124946;23;20006;-70
2022/01/09 03:39:43;;;;;;;47.95;24.17;;;;;;;;;;6098998;23;19998;-66
2022/01/09 03:42:09;;;;;;;48.95;24.95;;;;;;;;;;6124803;23;20024;-67
2022/01/09 03:44:34;;;;;;;45.10;23.42;;;;;;;;;;6098919;23;20433;-67
2022/01/09 03:47:00;;;;;;;53.40;26.33;;;;;;;;;;6124921;23;20426;-66
2022/01/09 03:49:25;;;;;;;52.15;26.80;;;;;;;;;;6124825;23;19998;-66
2022/01/09 03:51:52;;;;;;;55.33;28.52;;;;;;;;;;6124788;23;20010;-66
2022/01/09 03:54:21;;;;;;;46.33;23.60;;;;;;;;;;6124893;23;20002;-65
2022/01/09 03:56:47;;;;;;;36.28;19.65;;;;;;;;;;6124743;23;20434;-65
2022/01/09 03:59:12;;;;;;;34.75;18.38;;;;;;;;;;6124882;23;19998;-66
2022/01/09 04:01:38;;;;;;;35.15;18.58;;;;;;;;;;6124535;23;20013;-66
2022/01/09 04:04:04;;;;;;;36.20;18.77;;;;;;;;;;6099055;23;20072;-65
2022/01/09 04:06:30;;;;;;;32.42;18.30;;;;;;;;;;6099155;23;20002;-65
2022/01/09 04:08:56;;;;;;;36.63;19.77;;;;;;;;;;6124744;23;20017;-65
2022/01/09 04:11:28;;;;;;;43.50;22.08;;;;;;;;;;6098991;23;20042;-65
2022/01/09 04:13:54;;;;;;;41.85;22.08;;;;;;;;;;6124854;23;20006;-65
2022/01/09 04:16:20;;;;;;;41.03;23.48;;;;;;;;;;6124766;23;20009;-65
2022/01/09 04:18:45;;;;;;;39.85;22.70;;;;;;;;;;6124701;23;20017;-66
2022/01/09 04:21:10;;;;;;;43.75;22.55;;;;;;;;;;6124028;23;20541;-66
2022/01/09 04:23:37;;;;;;;42.00;22.15;;;;;;;;;;6124982;23;20085;-65
2022/01/09 04:26:03;;;;;;;45.15;23.08;;;;;;;;;;6100556;23;20002;-67
2022/01/09 04:28:28;;;;;;;43.78;23.50;;;;;;;;;;6125981;23;20013;-71
2022/01/09 04:30:53;;;;;;;40.83;21.95;;;;;;;;;;6100596;23;20085;-70
2022/01/09 04:33:19;;;;;;;40.13;22.42;;;;;;;;;;6126269;23;20010;-70
2022/01/09 04:35:45;;;;;;;40.38;22.58;;;;;;;;;;6126402;23;20006;-70
2022/01/09 04:38:10;;;;;;;40.20;21.08;;;;;;;;;;6126225;23;20010;-70
2022/01/09 04:40:36;;;;;;;42.45;23.35;;;;;;;;;;6126066;23;20068;-70
2022/01/09 04:43:04;;;;;;;42.53;22.77;;;;;;;;;;6126179;23;20009;-71
2022/01/09 04:45:30;;;;;;;40.33;22.33;;;;;;;;;;6126495;23;20426;-71
2022/01/09 04:48:00;;;;;;;36.05;20.38;;;;;;;;;;6126101;23;20026;-70
2022/01/09 04:50:28;;;;;;;39.95;21.30;;;;;;;;;;6126309;23;20016;-71
2022/01/09 04:52:59;;;;;;;41.53;22.75;;;;;;;;;;6100434;23;20481;-71
2022/01/09 04:55:26;;;;;;;39.38;22.45;;;;;;;;;;6126184;23;20473;-71
2022/01/09 04:57:52;;;;;;;44.65;23.75;;;;;;;;;;6126212;23;19998;-71
2022/01/09 05:00:18;;;;;;;36.30;20.42;;;;;;;;;;6099918;23;20017;-71
2022/01/09 05:02:43;;;;;;;34.00;18.90;;;;;;;;;;6125970;23;20022;-71
2022/01/09 05:05:10;;;;;;;38.38;20.92;;;;;;;;;;6126020;23;20009;-71
2022/01/09 05:07:36;;;;;;;36.50;20.45;;;;;;;;;;6125983;23;20049;-71
2022/01/09 05:10:02;;;;;;;37.97;20.65;;;;;;;;;;6126053;23;20005;-71
2022/01/09 05:12:27;;;;;;;33.97;19.90;;;;;;;;;;6126136;23;20001;-71
2022/01/09 05:14:55;;;;;;;28.17;18.02;;;;;;;;;;6100287;23;20085;-71
2022/01/09 05:17:21;;;;;;;33.63;19.63;;;;;;;;;;6100271;23;20465;-71
2022/01/09 05:19:47;;;;;;;38.90;21.92;;;;;;;;;;6125866;23;20014;-71
2022/01/09 05:22:13;;;;;;;41.80;23.60;;;;;;;;;;6116795;23;20097;-71
2022/01/09 05:24:38;;;;;;;41.65;22.85;;;;;;;;;;6124059;23;20044;-71
2022/01/09 05:27:04;;;;;;;38.30;21.27;;;;;;;;;;6124846;23;20066;-71
2022/01/09 05:29:30;;;;;;;36.17;20.83;;;;;;;;;;6125985;23;20006;-71
2022/01/09 05:31:55;;;;;;;44.05;29.35;;;;;;;;;;6124521;23;20041;-71
2022/01/09 05:34:21;;;;;;;33.00;21.15;;;;;;;;;;6125676;23;20335;-71
2022/01/09 05:36:46;;;;;;;33.13;19.85;;;;;;;;;;6125780;23;20005;-71
2022/01/09 05:39:12;;;;;;;30.75;17.55;;;;;;;;;;6125846;23;20451;-71
2022/01/09 05:41:38;;;;;;;30.05;18.20;;;;;;;;;;6125745;23;20006;-72
2022/01/09 05:44:04;;;;;;;28.77;16.85;;;;;;;;;;6125696;23;20001;-72
2022/01/09 05:46:30;;;;;;;37.30;22.00;;;;;;;;;;6125798;23;20045;-71
2022/01/09 05:48:55;;;;;;;33.42;20.13;;;;;;;;;;6125702;23;20438;-71
2022/01/09 05:51:21;;;;;;;34.15;19.45;;;;;;;;;;6125671;23;20502;-71
2022/01/09 05:53:46;;;;;;;33.75;19.50;;;;;;;;;;6125653;23;20434;-71
2022/01/09 05:56:12;;;;;;;33.15;19.92;;;;;;;;;;6125738;23;20002;-71
2022/01/09 05:58:39;;;;;;;35.55;19.00;;;;;;;;;;6125677;23;20092;-71
2022/01/09 06:01:05;;;;;;;35.15;19.80;;;;;;;;;;6125418;23;20024;-70
2022/01/09 06:03:31;;;;;;;38.85;25.67;;;;;;;;;;6125575;23;20481;-72
2022/01/09 06:05:56;;;;;;;86.32;64.65;;;;;;;;;;6125469;23;20028;-71
2022/01/09 06:08:23;;;;;;;57.63;31.67;;;;;;;;;;6125624;23;20085;-70
2022/01/09 06:10:48;;;;;;;39.85;21.45;;;;;;;;;;6125443;23;20017;-70
2022/01/09 06:13:14;;;;;;;47.90;29.10;;;;;;;;;;6125425;23;20010;-71
2022/01/09 06:15:39;;;;;;;56.65;26.65;;;;;;;;;;6125498;23;19997;-71
2022/01/09 06:18:05;;;;;;;67.45;29.70;;;;;;;;;;6125474;23;20006;-71
2022/01/09 06:20:30;;;;;;;67.43;30.70;;;;;;;;;;6124801;23;20005;-71
2022/01/09 06:22:56;;;;;;;87.28;37.13;;;;;;;;;;6125404;23;20425;-72
2022/01/09 06:25:23;;;;;;;50.10;24.23;;;;;;;;;;6099284;23;20030;-71
2022/01/09 06:27:48;;;;;;;46.72;23.55;;;;;;;;;;6125460;23;20005;-71
2022/01/09 06:30:13;;;;;;;47.00;23.30;;;;;;;;;;6125595;23;20085;-71
2022/01/09 06:32:39;;;;;;;40.28;21.10;;;;;;;;;;6125298;23;20013;-70
2022/01/09 06:35:05;;;;;;;36.88;21.25;;;;;;;;;;6125520;23;20052;-71
2022/01/09 06:37:31;;;;;;;43.05;23.50;;;;;;;;;;6125326;23;20056;-67
2022/01/09 06:39:57;;;;;;;44.72;23.35;;;;;;;;;;6125191;23;20029;-67
2022/01/09 06:42:22;;;;;;;50.58;25.67;;;;;;;;;;6125071;23;20056;-67
2022/01/09 06:44:48;;;;;;;70.60;30.98;;;;;;;;;;6125177;23;20002;-67
2022/01/09 06:47:13;;;;;;;75.97;33.00;;;;;;;;;;6124787;23;20049;-67
2022/01/09 06:49:40;;;;;;;106.32;41.28;;;;;;;;;;6099380;23;20473;-67
2022/01/09 06:52:05;;;;;;;104.10;41.60;;;;;;;;;;6098902;23;20006;-67
2022/01/09 06:54:31;;;;;;;106.40;43.50;;;;;;;;;;6125227;23;20056;-68
2022/01/09 06:56:57;;;;;;;88.28;37.05;;;;;;;;;;6124949;23;20006;-67
2022/01/09 06:59:22;;;;;;;75.63;33.08;;;;;;;;;;6125078;23;20022;-67
2022/01/09 07:01:48;;;;;;;222.52;77.55;;;;;;;;;;6098832;23;20006;-64
2022/01/09 07:04:13;;;;;;;229.57;85.10;;;;;;;;;;6126432;23;20021;-66
2022/01/09 07:06:39;;;;;;;620.97;250.38;;;;;;;;;;6126022;23;20030;-66
2022/01/09 07:09:05;;;;;;;349.65;126.28;;;;;;;;;;6125872;23;20323;-66
2022/01/09 07:11:30;;;;;;;272.02;98.32;;;;;;;;;;6125588;23;20010;-67
2022/01/09 07:13:56;;;;;;;337.13;122.50;;;;;;;;;;6125785;23;20005;-67
2022/01/09 07:16:21;;;;;;;293.05;110.85;;;;;;;;;;6125776;23;20006;-67
2022/01/09 07:18:47;;;;;;;197.18;83.07;;;;;;;;;;6126162;23;20017;-66
2022/01/09 07:21:13;;;;;;;314.08;138.25;;;;;;;;;;6103603;23;20394;-67
2022/01/09 07:23:38;;;;;;;348.73;140.50;;;;;;;;;;6126101;23;20002;-67
2022/01/09 07:26:04;;;;;;;66.63;31.15;;;;;;;;;;6124377;23;20013;-66
2022/01/09 07:28:29;;;;;;;90.38;40.17;;;;;;;;;;6126001;23;19994;-67
2022/01/09 07:30:54;;;;;;;126.45;57.17;;;;;;;;;;6125656;23;20010;-67
2022/01/09 07:33:20;;;;;;;168.43;71.00;;;;;;;;;;6125863;23;20005;-67
2022/01/09 07:35:45;;;;;;;52.17;28.38;;;;;;;;;;6125849;23;20064;-66
2022/01/09 07:38:11;;;;;;;73.05;37.20;;;;;;;;;;6124735;23;20404;-66
2022/01/09 07:40:36;;;;;;;77.70;36.58;;;;;;;;;;6100305;23;20029;-66
2022/01/09 07:43:02;;;;;;;140.15;60.25;;;;;;;;;;6126056;23;19997;-71
2022/01/09 07:45:29;;;;;;;47.33;31.63;;;;;;;;;;6126083;23;20006;-71
2022/01/09 07:47:56;;;;;;;78.82;38.42;;;;;;;;;;6124686;23;20422;-71
2022/01/09 07:50:22;;;;;;;108.68;40.30;;;;;;;;;;6126417;23;20010;-70
2022/01/09 07:52:49;;;;;;;131.18;48.17;;;;;;;;;;6126543;23;20002;-70
2022/01/09 07:55:15;;;;;;;70.65;31.67;;;;;;;;;;6126509;23;20113;-68
2022/01/09 07:57:41;;;;;;;68.57;30.67;;;;;;;;;;6125944;23;20427;-68
2022/01/09 08:00:08;;;;;;;69.68;31.00;;;;;;;;;;6126207;23;20014;-67
2022/01/09 08:02:40;;;;;;;226.35;90.22;;;;;;;;;;6128350;23;20006;-68
2022/01/09 08:05:05;;;;;;;370.80;171.20;;;;;;;;;;6126593;23;20033;-67
2022/01/09 08:07:31;;;;;;;398.02;307.20;;;;;;;;;;6128672;23;19998;-68
2022/01/09 08:09:56;;;;;;;153.45;114.30;;;;;;;;;;6126845;23;20006;-67
2022/01/09 08:12:22;;;;;;;90.60;65.70;;;;;;;;;;6126601;23;20081;-70
2022/01/09 08:14:47;;;;;;;59.65;39.15;;;;;;;;;;6126043;23;20038;-70
2022/01/09 08:17:13;;;;;;;87.00;39.22;;;;;;;;;;6127847;23;20005;-70
2022/01/09 08:19:39;;;;;;;73.15;32.45;;;;;;;;;;6128104;23;20002;-70
2022/01/09 08:22:06;;;;;;;61.05;31.75;;;;;;;;;;6127113;23;20033;-70
2022/01/09 08:24:32;;;;;;;53.53;27.83;;;;;;;;;;6101633;23;20042;-70
2022/01/09 08:26:58;;;;;;;55.45;28.00;;;;;;;;;;6127520;23;20026;-70
2022/01/09 08:29:24;;;;;;;52.63;28.35;;;;;;;;;;6127455;23;20013;-70
2022/01/09 08:31:50;;;;;;;67.53;30.50;;;;;;;;;;6127660;23;20002;-70
2022/01/09 08:34:16;;;;;;;67.20;31.65;;;;;;;;;;6127661;23;20010;-67
2022/01/09 08:36:41;;;;;;;65.07;31.80;;;;;;;;;;6127366;23;20002;-67
2022/01/09 08:39:07;;;;;;;62.50;31.40;;;;;;;;;;6127877;23;20010;-67
2022/01/09 08:41:34;;;;;;;51.20;26.52;;;;;;;;;;6127878;23;20006;-67
2022/01/09 08:44:02;;;;;;;60.75;28.45;;;;;;;;;;6128157;23;20040;-65
2022/01/09 08:46:28;;;;;;;50.47;26.90;;;;;;;;;;6127584;23;20081;-65
2022/01/09 08:48:54;;;;;;;58.35;28.48;;;;;;;;;;6127437;23;20002;-65
2022/01/09 08:51:19;;;;;;;54.13;27.35;;;;;;;;;;6127267;23;19997;-65
2022/01/09 08:53:50;;;;;;;47.67;25.02;;;;;;;;;;6127546;23;20006;-65
2022/01/09 08:56:17;;;;;;;44.75;25.02;;;;;;;;;;6127198;23;20014;-65
2022/01/09 08:58:43;;;;;;;42.08;21.77;;;;;;;;;;6128026;23;20009;-65
2022/01/09 09:01:08;;;;;;;41.75;23.05;;;;;;;;;;6127399;23;20010;-65
2022/01/09 09:03:36;;;;;;;46.45;24.23;;;;;;;;;;6101572;23;19994;-65
2022/01/09 09:06:02;;;;;;;36.63;19.58;;;;;;;;;;6127294;23;20040;-66
2022/01/09 09:08:27;;;;;;;32.72;18.77;;;;;;;;;;6127292;23;19998;-66
2022/01/09 09:10:52;;;;;;;31.17;19.98;;;;;;;;;;6127120;23;20014;-66
2022/01/09 09:13:18;;;;;;;31.67;18.17;;;;;;;;;;6127535;23;20002;-66
2022/01/09 09:15:46;;;;;;;44.35;21.10;;;;;;;;;;6127485;23;20010;-66
2022/01/09 09:18:12;;;;;;;43.33;23.10;;;;;;;;;;6127349;23;20430;-65
2022/01/09 09:20:38;;;;;;;44.30;22.60;;;;;;;;;;6126762;23;20016;-65
2022/01/09 09:23:04;;;;;;;53.80;27.65;;;;;;;;;;6127395;23;20009;-65
2022/01/09 09:25:29;;;;;;;117.53;59.55;;;;;;;;;;6126535;23;20013;-65
2022/01/09 09:27:55;;;;;;;48.17;23.88;;;;;;;;;;6127380;23;20185;-63
2022/01/09 09:30:20;;;;;;;55.63;26.95;;;;;;;;;;6126455;23;20009;-68
2022/01/09 09:32:46;;;;;;;45.47;26.45;;;;;;;;;;6126332;23;20012;-68
2022/01/09 09:35:11;;;;;;;56.38;26.98;;;;;;;;;;6126628;23;20092;-69
2022/01/09 09:37:37;;;;;;;60.92;28.05;;;;;;;;;;6127087;23;20001;-68
2022/01/09 09:40:03;;;;;;;42.65;24.52;;;;;;;;;;6127327;23;20010;-68
2022/01/09 09:42:29;;;;;;;39.88;22.33;;;;;;;;;;6127193;23;20072;-68
2022/01/09 09:45:00;;;;;;;32.58;17.23;;;;;;;;;;6126944;23;20032;-68
2022/01/09 09:47:26;;;;;;;29.52;15.40;;;;;;;;;;6127376;23;20006;-68
2022/01/09 09:49:52;;;;;;;26.08;13.68;;;;;;;;;;6126831;23;19994;-68
2022/01/09 09:52:19;;;;;;;21.88;13.00;;;;;;;;;;6126722;23;20006;-68
2022/01/09 09:54:47;;;;;;;20.70;12.48;;;;;;;;;;6126864;23;19994;-68
2022/01/09 09:57:13;;;;;;;19.65;11.27;;;;;;;;;;6126595;23;20061;-68
2022/01/09 09:59:39;;;;;;;19.23;11.45;;;;;;;;;;6126647;23;20002;-68
2022/01/09 10:02:08;;;;;;;17.67;10.35;;;;;;;;;;6126624;23;20073;-68
2022/01/09 10:04:33;;;;;;;13.55;8.30;;;;;;;;;;6100331;23;20307;-68
2022/01/09 10:06:58;;;;;;;10.38;7.28;;;;;;;;;;6126438;23;20010;-68
2022/01/09 10:09:24;;;;;;;10.13;6.63;;;;;;;;;;6101120;23;20021;-68
2022/01/09 10:11:58;;;;;;;10.77;6.57;;;;;;;;;;6126715;23;20013;-68
2022/01/09 10:14:25;;;;;;;6.95;5.57;;;;;;;;;;6126676;23;20044;-68
2022/01/09 10:17:17;;;;;;;9.60;6.25;;;;;;;;;;6126626;23;20001;-68
2022/01/09 10:19:45;;;;;;;7.97;6.07;;;;;;;;;;6122010;23;20060;-76
2022/01/09 10:22:44;;;;;;;12.05;7.20;;;;;;;;;;6125407;23;20014;-71
2022/01/09 10:25:21;;;;;;;10.63;6.93;;;;;;;;;;6077657;23;20006;-70
2022/01/09 10:27:48;;;;;;;8.73;6.82;;;;;;;;;;6126547;23;20005;-71
2022/01/09 10:30:14;;;;;;;9.23;7.40;;;;;;;;;;6126596;23;20028;-71
2022/01/09 10:32:40;;;;;;;13.45;8.95;;;;;;;;;;6126594;23;20319;-70
2022/01/09 10:35:06;;;;;;;9.75;7.03;;;;;;;;;;6126514;23;20002;-70
2022/01/09 10:37:32;;;;;;;8.68;5.85;;;;;;;;;;6100748;23;20033;-70
2022/01/09 10:39:58;;;;;;;8.68;6.25;;;;;;;;;;6125781;23;20081;-70
2022/01/09 10:42:23;;;;;;;8.55;6.13;;;;;;;;;;6100332;23;20006;-70
2022/01/09 10:44:49;;;;;;;9.18;6.47;;;;;;;;;;6126475;23;20001;-70
2022/01/09 10:47:16;;;;;;;9.35;6.78;;;;;;;;;;6100499;23;20331;-70
2022/01/09 10:49:49;;;;;;;8.80;6.57;;;;;;;;;;6126421;23;19994;-70
2022/01/09 10:52:18;;;;;;;9.23;6.90;;;;;;;;;;6126516;23;20006;-70
2022/01/09 10:54:46;;;;;;;9.85;6.90;;;;;;;;;;6126376;23;19997;-70
2022/01/09 10:57:13;;;;;;;9.70;6.78;;;;;;;;;;6125716;23;20080;-70
2022/01/09 10:59:39;;;;;;;13.07;8.68;;;;;;;;;;6099838;23;20009;-70
2022/01/09 11:02:04;;;;;;;9.80;7.03;;;;;;;;;;6125748;23;20016;-70
2022/01/09 11:04:30;;;;;;;10.80;6.45;;;;;;;;;;6126090;23;19994;-70
2022/01/09 11:06:55;;;;;;;8.25;5.47;;;;;;;;;;6100211;23;20057;-70
2022/01/09 11:09:22;;;;;;;8.02;6.43;;;;;;;;;;6126295;23;20001;-70
2022/01/09 11:11:48;;;;;;;22.77;16.58;;;;;;;;;;6126219;23;20013;-70
2022/01/09 11:14:19;;;;;;;16.23;10.88;;;;;;;;;;6126242;23;20036;-70
2022/01/09 11:16:54;;;;;;;10.43;6.20;;;;;;;;;;6125932;23;20093;-70
2022/01/09 11:19:24;;;;;;;10.60;6.78;;;;;;;;;;6125792;23;20513;-70
2022/01/09 11:21:55;;;;;;;9.02;6.05;;;;;;;;;;6125752;23;20438;-70
2022/01/09 11:24:25;;;;;;;9.25;6.40;;;;;;;;;;6126461;23;20002;-70
2022/01/09 11:27:06;;;;;;;8.60;5.70;;;;;;;;;;6126517;23;20308;-70
2022/01/09 11:29:38;;;;;;;6.80;5.30;;;;;;;;;;6100499;23;20392;-70
2022/01/09 11:32:36;;;;;;;7.72;5.50;;;;;;;;;;6126736;23;20482;-70
2022/01/09 11:35:06;;;;;;;11.10;7.63;;;;;;;;;;6078946;23;20435;-70
2022/01/09 11:37:41;;;;;;;9.23;6.30;;;;;;;;;;6128435;23;20006;-70
2022/01/09 11:40:37;;;;;;;11.02;8.43;;;;;;;;;;6128254;23;20010;-70
2022/01/09 11:43:13;;;;;;;18.08;10.13;;;;;;;;;;6111273;23;20060;-70
2022/01/09 11:45:38;;;;;;;17.40;11.10;;;;;;;;;;6128318;23;20029;-71
2022/01/09 11:48:06;;;;;;;9.80;7.03;;;;;;;;;;6128157;23;20403;-70
2022/01/09 11:50:31;;;;;;;10.23;7.13;;;;;;;;;;6127890;23;20034;-70
2022/01/09 11:52:58;;;;;;;19.60;12.73;;;;;;;;;;6127799;23;20002;-70
2022/01/09 11:55:35;;;;;;;29.60;15.80;;;;;;;;;;6102046;23;20346;-70
2022/01/09 11:58:03;;;;;;;19.13;10.07;;;;;;;;;;6127813;23;20029;-70
2022/01/09 12:00:41;;;;;;;17.15;11.05;;;;;;;;;;6127818;23;20085;-70
2022/01/09 12:03:31;;;;;;;22.35;13.93;;;;;;;;;;6127833;23;20010;-70
2022/01/09 12:06:10;;;;;;;22.77;13.43;;;;;;;;;;6114254;23;20016;-70
2022/01/09 12:08:57;;;;;;;13.60;8.68;;;;;;;;;;6127888;23;20010;-70
2022/01/09 12:11:42;;;;;;;10.82;7.60;;;;;;;;;;6127900;23;20014;-70
2022/01/09 12:14:08;;;;;;;10.05;7.25;;;;;;;;;;6127591;23;20006;-70
2022/01/09 12:16:50;;;;;;;11.70;7.60;;;;;;;;;;6127675;23;20017;-70
2022/01/09 12:19:34;;;;;;;21.17;11.20;;;;;;;;;;6127731;23;20010;-70
2022/01/09 12:22:00;;;;;;;18.92;11.35;;;;;;;;;;6126753;23;20149;-70
2022/01/09 12:24:53;;;;;;;12.00;8.80;;;;;;;;;;6127671;23;20041;-70
2022/01/09 12:27:38;;;;;;;11.32;7.45;;;;;;;;;;6124444;23;20006;-70
2022/01/09 12:30:06;;;;;;;10.55;7.07;;;;;;;;;;6101704;23;20010;-70
2022/01/09 12:32:43;;;;;;;13.35;9.27;;;;;;;;;;6127514;23;20304;-70
2022/01/09 12:35:11;;;;;;;18.00;10.90;;;;;;;;;;6101943;23;20092;-70
2022/01/09 12:37:37;;;;;;;15.57;9.68;;;;;;;;;;6127853;23;20002;-70
2022/01/09 12:40:05;;;;;;;14.38;9.68;;;;;;;;;;6127392;23;20174;-70
2022/01/09 12:42:31;;;;;;;16.50;9.88;;;;;;;;;;6127426;23;20017;-70
2022/01/09 12:44:57;;;;;;;19.10;11.43;;;;;;;;;;6101100;23;20008;-70
2022/01/09 12:47:22;;;;;;;16.20;9.75;;;;;;;;;;6101271;23;19998;-70
2022/01/09 12:49:48;;;;;;;17.65;10.40;;;;;;;;;;6127464;23;20010;-70
2022/01/09 12:52:20;;;;;;;15.88;9.77;;;;;;;;;;6127471;23;20329;-70
2022/01/09 12:54:45;;;;;;;15.48;10.05;;;;;;;;;;6127498;23;20367;-70
2022/01/09 12:57:11;;;;;;;20.00;12.43;;;;;;;;;;6101612;23;20009;-70
2022/01/09 12:59:37;;;;;;;16.30;10.45;;;;;;;;;;6127290;23;20009;-70
2022/01/09 13:02:09;;;;;;;15.73;10.80;;;;;;;;;;6127230;23;20322;-70
2022/01/09 13:04:35;;;;;;;15.30;10.43;;;;;;;;;;6127535;23;20002;-70
2022/01/09 13:07:01;;;;;;;17.38;11.02;;;;;;;;;;6077288;23;20067;-70
2022/01/09 13:09:28;;;;;;;65.75;42.15;;;;;;;;;;6127240;23;20041;-70
2022/01/09 13:11:55;;;;;;;101.65;57.88;;;;;;;;;;6127230;23;20085;-70
2022/01/09 13:14:20;;;;;;;41.13;23.33;;;;;;;;;;6127212;23;20013;-70
2022/01/09 13:16:45;;;;;;;344.05;151.13;;;;;;;;;;6127228;23;20089;-70
2022/01/09 13:19:12;;;;;;;603.58;277.33;;;;;;;;;;6101182;23;20017;-70
2022/01/09 13:21:39;;;;;;;182.30;79.38;;;;;;;;;;6126404;23;20064;-70
2022/01/09 13:24:07;;;;;;;52.53;32.38;;;;;;;;;;6101295;23;20012;-70
2022/01/09 13:26:32;;;;;;;123.30;45.80;;;;;;;;;;6127152;23;20431;-70
2022/01/09 13:28:59;;;;;;;913.80;418.77;;;;;;;;;;6101477;23;20006;-70
2022/01/09 13:31:24;;;;;;;475.83;197.68;;;;;;;;;;6127205;23;19994;-70
2022/01/09 13:33:54;;;;;;;135.30;56.13;;;;;;;;;;6127034;23;20012;-70
2022/01/09 13:36:26;;;;;;;218.77;90.82;;;;;;;;;;6100757;23;20009;-70
2022/01/09 13:38:52;;;;;;;44.47;21.73;;;;;;;;;;6101301;23;20001;-70
2022/01/09 13:41:17;;;;;;;22.90;14.13;;;;;;;;;;6126792;23;20449;-70
2022/01/09 13:43:43;;;;;;;20.05;13.50;;;;;;;;;;6127024;23;20006;-70
2022/01/09 13:46:11;;;;;;;20.42;12.93;;;;;;;;;;6101066;23;19998;-70
2022/01/09 13:48:44;;;;;;;22.55;13.77;;;;;;;;;;6100918;23;20006;-70
2022/01/09 13:51:09;;;;;;;26.63;14.95;;;;;;;;;;6126831;23;20342;-70
2022/01/09 13:53:35;;;;;;;26.70;14.85;;;;;;;;;;6126779;23;20025;-70
2022/01/09 13:56:04;;;;;;;23.73;13.15;;;;;;;;;;6126743;23;20014;-70
2022/01/09 13:58:29;;;;;;;27.45;13.50;;;;;;;;;;6126879;23;20085;-70
2022/01/09 14:00:54;;;;;;;34.10;15.98;;;;;;;;;;6126629;23;20041;-70
2022/01/09 14:03:27;;;;;;;37.20;17.20;;;;;;;;;;6126670;23;20373;-70
2022/01/09 14:05:52;;;;;;;36.28;18.45;;;;;;;;;;6126631;23;20435;-70
2022/01/09 14:08:34;;;;;;;30.35;17.95;;;;;;;;;;6126579;23;20001;-70
2022/01/09 14:11:03;;;;;;;39.95;20.55;;;;;;;;;;6100780;23;20010;-70
2022/01/09 14:13:36;;;;;;;54.70;25.52;;;;;;;;;;6126689;23;20076;-70
2022/01/09 14:16:09;;;;;;;47.25;21.83;;;;;;;;;;6126797;23;20037;-70
2022/01/09 14:18:40;;;;;;;78.97;32.08;;;;;;;;;;6126599;23;20006;-70